Here is the Quick Look data you requested

The Data originates at the National Weather Service, and is made available here by the UAlbany Department of Atmospheric and Environmental Sciences

Surface Observations

KAFN 180252Z AUTO 17005KT 10SM CLR 20/14 A3005 RMK AO2 SLP176 T02000139 58006 $=
KASH 180256Z AUTO 00000KT 10SM CLR 19/13 A3003 RMK AO2 SLP176 T01890133 58008=
KBML 180252Z AUTO 00000KT 10SM CLR 17/13 A3001 RMK AO2 SLP159 T01670133 56002=
KCON 180251Z AUTO 00000KT 10SM CLR 19/13 A3003 RMK AO2 SLP166 T01890128 56007=
KDAW 180251Z AUTO 00000KT 10SM CLR 14/13 A3003 RMK AO2 SLP166 T01440128 56013=
KEEN 180256Z AUTO 00000KT 10SM CLR 17/13 A3003 RMK AO2 SLP181 T01670128 56001=
KHIE 180252Z AUTO 00000KT 6SM HZ CLR 16/12 A3001 RMK AO2 SLP159 T01560122 56001=
KLCI 180256Z AUTO 00000KT 10SM CLR 19/12 A3004 RMK AO2 SLP181 T01940122 50002=
KLEB 180253Z AUTO 00000KT 10SM CLR 16/12 A3001 RMK AO2 SLP153 T01610122 53004=
KMHT 180253Z 15005KT 10SM SCT250 21/13 A3001 RMK AO2 SLP171 T02110128 56010 $=
KMWN 180254Z 26029G33KT 70SM FEW050 FEW100 SCT150 BKN180 12/06 RMK=